createdAt,value
2022-08-07T00:02:39.615Z,45.79
2022-08-07T00:04:57.966Z,46.05
2022-08-07T00:07:27.332Z,45.85
2022-08-07T00:10:18.811Z,46.18
2022-08-07T00:13:00.347Z,45.94
2022-08-07T00:15:37.663Z,45.97
2022-08-07T00:18:19.329Z,45.87
2022-08-07T00:20:49.348Z,45.75
2022-08-07T00:23:17.582Z,45.71
2022-08-07T00:25:45.756Z,46.04
2022-08-07T00:28:22.659Z,45.83
2022-08-07T00:30:59.753Z,45.83
2022-08-07T00:33:28.699Z,46.13
2022-08-07T00:36:00.929Z,45.92
2022-08-07T00:38:31.376Z,45.79
2022-08-07T00:40:59.914Z,45.93
2022-08-07T00:44:00.694Z,46.17
2022-08-07T00:46:17.133Z,45.89
2022-08-07T00:48:49.799Z,45.82
2022-08-07T00:51:17.939Z,46.16
2022-08-07T00:53:50.875Z,45.97
2022-08-07T00:56:30.346Z,46.19
2022-08-07T00:59:03.227Z,46.21
2022-08-07T01:01:44.036Z,46.30
2022-08-07T01:04:12.574Z,45.95
2022-08-07T01:06:52.749Z,46.10
2022-08-07T01:10:05.038Z,46.03
2022-08-07T01:12:29.954Z,46.35
2022-08-07T01:15:01.481Z,46.13
2022-08-07T01:17:31.532Z,46.45
2022-08-07T01:20:02.753Z,46.09
2022-08-07T01:22:32.952Z,46.07
2022-08-07T01:25:00.887Z,46.43
2022-08-07T01:27:33.031Z,46.14
2022-08-07T01:30:01.084Z,46.25
2022-08-07T01:32:29.066Z,46.68
2022-08-07T01:34:57.286Z,46.52
2022-08-07T01:37:25.431Z,47.01
2022-08-07T01:39:54.783Z,46.64
2022-08-07T01:42:39.679Z,46.39
2022-08-07T01:45:17.940Z,46.85
2022-08-07T01:48:29.352Z,46.95
2022-08-07T01:50:34.844Z,47.09
2022-08-07T01:53:08.547Z,47.04
2022-08-07T01:55:43.294Z,46.92
2022-08-07T01:58:28.902Z,47.12
2022-08-07T02:01:09.848Z,46.87
2022-08-07T02:03:48.911Z,47.13
2022-08-07T02:06:31.578Z,47.11
2022-08-07T02:09:00.965Z,46.91
2022-08-07T02:12:04.061Z,46.77
2022-08-07T02:14:35.721Z,46.99
2022-08-07T02:17:06.218Z,46.88
2022-08-07T02:20:07.333Z,47.25
2022-08-07T02:22:25.863Z,46.81
2022-08-07T02:24:54.632Z,47.34
2022-08-07T02:27:25.108Z,47.32
2022-08-07T02:29:54.484Z,47.49
2022-08-07T02:32:23.138Z,47.45
2022-08-07T02:34:51.644Z,47.39
2022-08-07T02:37:19.602Z,47.32
2022-08-07T02:40:11.449Z,47.13
2022-08-07T02:42:36.968Z,47.56
2022-08-07T02:45:57.669Z,47.51
2022-08-07T02:47:53.723Z,47.38
2022-08-07T02:50:21.942Z,47.36
2022-08-07T02:52:54.821Z,47.26
2022-08-07T02:56:02.962Z,47.41
2022-08-07T02:58:22.552Z,47.50
2022-08-07T03:00:57.166Z,47.23
2022-08-07T03:03:25.404Z,47.43
2022-08-07T03:05:57.598Z,47.63
2022-08-07T03:08:26.917Z,47.48
2022-08-07T03:10:57.579Z,47.76
2022-08-07T03:13:27.229Z,47.27
2022-08-07T03:15:56.206Z,47.39
2022-08-07T03:18:34.689Z,47.57
2022-08-07T03:21:04.488Z,47.41
2022-08-07T03:23:33.693Z,47.33
2022-08-07T03:26:02.208Z,47.65
2022-08-07T03:28:38.067Z,47.47
2022-08-07T03:31:24.414Z,47.59
2022-08-07T03:33:54.499Z,47.66
2022-08-07T03:36:23.157Z,47.62
2022-08-07T03:38:55.650Z,47.81
2022-08-07T03:41:42.504Z,47.81
2022-08-07T03:44:13.957Z,47.63
2022-08-07T03:47:13.928Z,47.80
2022-08-07T03:49:31.550Z,47.95
2022-08-07T03:52:01.132Z,47.86
2022-08-07T03:54:35.393Z,47.91
2022-08-07T03:57:07.436Z,48.21
2022-08-07T03:59:36.939Z,47.89
2022-08-07T04:02:14.932Z,48.18
2022-08-07T04:04:45.215Z,48.08
2022-08-07T04:07:16.673Z,47.87
2022-08-07T04:09:50.171Z,47.98
2022-08-07T04:12:23.946Z,47.93
2022-08-07T04:14:57.336Z,48.31
2022-08-07T04:18:04.624Z,48.35
2022-08-07T04:20:13.253Z,47.86
2022-08-07T04:22:53.664Z,47.99
2022-08-07T04:25:29.580Z,48.09
2022-08-07T04:28:00.612Z,48.08
2022-08-07T04:30:39.489Z,48.25
2022-08-07T04:33:15.570Z,48.18
2022-08-07T04:35:44.951Z,48.09
2022-08-07T04:38:18.871Z,48.28
2022-08-07T04:40:51.991Z,48.54
2022-08-07T04:44:10.604Z,48.34
2022-08-07T04:46:20.222Z,48.59
2022-08-07T04:49:02.532Z,48.34
2022-08-07T04:51:50.593Z,48.64
2022-08-07T04:54:22.855Z,48.65
2022-08-07T04:58:15.791Z,48.49
2022-08-07T05:00:10.984Z,48.64
2022-08-07T05:02:45.346Z,48.70
2022-08-07T05:05:52.711Z,48.62
2022-08-07T05:08:14.127Z,48.58
2022-08-07T05:10:44.727Z,48.53
2022-08-07T05:14:56.349Z,48.98
2022-08-07T05:16:06.420Z,48.86
2022-08-07T05:18:37.233Z,48.77
2022-08-07T05:21:05.800Z,49.09
2022-08-07T05:23:37.475Z,49.21
2022-08-07T05:26:11.699Z,49.16
2022-08-07T05:28:48.410Z,49.01
2022-08-07T05:31:17.821Z,49.27
2022-08-07T05:34:01.246Z,49.24
2022-08-07T05:36:35.275Z,48.98
2022-08-07T05:40:07.074Z,49.25
2022-08-07T05:42:00.261Z,49.12
2022-08-07T05:44:30.790Z,49.40
2022-08-07T05:47:01.017Z,49.28
2022-08-07T05:49:40.552Z,49.29
2022-08-07T05:52:11.690Z,49.26
2022-08-07T05:54:53.371Z,49.18
2022-08-07T05:57:23.556Z,49.25
2022-08-07T05:59:55.847Z,49.34
2022-08-07T06:02:30.731Z,48.97
2022-08-07T06:05:03.339Z,49.23
2022-08-07T06:08:13.468Z,49.28
2022-08-07T06:10:21.905Z,49.25
2022-08-07T06:12:50.590Z,49.20
2022-08-07T06:15:19.873Z,49.20
2022-08-07T06:17:53.620Z,48.97
2022-08-07T06:20:25.712Z,49.32
2022-08-07T06:23:46.227Z,48.87
2022-08-07T06:26:00.754Z,48.82
2022-08-07T06:28:28.756Z,48.90
2022-08-07T06:31:00.032Z,49.06
2022-08-07T06:33:29.690Z,49.00
2022-08-07T06:36:12.296Z,48.92
2022-08-07T06:38:59.545Z,49.04
2022-08-07T06:42:01.910Z,48.86
2022-08-07T06:44:20.944Z,48.98
2022-08-07T06:46:53.662Z,49.06
2022-08-07T06:49:50.873Z,48.90
2022-08-07T06:52:31.638Z,48.81
2022-08-07T06:55:33.209Z,48.80
2022-08-07T06:57:56.882Z,48.93
2022-08-07T07:00:25.591Z,48.76
2022-08-07T07:02:57.460Z,49.22
2022-08-07T07:06:02.439Z,49.32
2022-08-07T07:08:18.542Z,49.33
2022-08-07T07:10:57.154Z,49.35
2022-08-07T07:13:56.331Z,48.91
2022-08-07T07:16:21.614Z,48.99
2022-08-07T07:18:51.400Z,49.27
2022-08-07T07:21:21.846Z,49.07
2022-08-07T07:24:06.014Z,49.06
2022-08-07T07:26:40.512Z,48.79
2022-08-07T07:29:56.258Z,49.00
2022-08-07T07:32:00.536Z,48.77
2022-08-07T07:34:30.827Z,48.97
2022-08-07T07:37:14.461Z,48.87
2022-08-07T07:39:54.346Z,48.56
2022-08-07T07:42:32.741Z,48.78
2022-08-07T07:45:01.626Z,48.51
2022-08-07T07:47:30.296Z,48.36
2022-08-07T07:50:33.757Z,48.48
2022-08-07T07:53:06.372Z,48.43
2022-08-07T07:55:54.728Z,48.13
2022-08-07T07:58:26.358Z,47.94
2022-08-07T08:00:55.925Z,47.83
2022-08-07T08:04:06.333Z,47.99
2022-08-07T08:06:13.122Z,47.97
2022-08-07T08:08:42.112Z,47.70
2022-08-07T08:11:16.090Z,47.74
2022-08-07T08:13:54.444Z,47.30
2022-08-07T08:16:26.887Z,47.50
2022-08-07T08:18:58.085Z,47.26
2022-08-07T08:21:55.775Z,47.01
2022-08-07T08:24:54.816Z,46.91
2022-08-07T08:27:35.420Z,46.73
2022-08-07T08:30:05.476Z,46.75
2022-08-07T08:32:39.211Z,46.69
2022-08-07T08:35:09.829Z,46.64
2022-08-07T08:38:00.630Z,46.30
2022-08-07T08:40:32.071Z,46.13
2022-08-07T08:43:04.768Z,46.18
2022-08-07T08:45:58.685Z,45.69
2022-08-07T08:48:32.537Z,45.53
2022-08-07T08:51:14.783Z,45.46
2022-08-07T08:53:57.774Z,45.24
2022-08-07T08:56:30.126Z,45.33
2022-08-07T08:59:08.702Z,45.03
2022-08-07T09:01:49.276Z,44.97
2022-08-07T09:04:25.984Z,44.87
2022-08-07T09:07:00.375Z,44.43
2022-08-07T09:09:57.446Z,44.27
2022-08-07T09:12:41.884Z,44.12
2022-08-07T09:16:22.698Z,43.77
2022-08-07T09:18:35.057Z,43.53
2022-08-07T09:21:13.643Z,43.31
2022-08-07T09:24:32.711Z,43.04
2022-08-07T09:26:50.907Z,42.63
2022-08-07T09:30:03.128Z,42.61
2022-08-07T09:32:21.769Z,42.56
2022-08-07T09:36:05.102Z,42.56
2022-08-07T09:37:55.897Z,42.45
2022-08-07T09:40:32.827Z,42.51
2022-08-07T09:43:08.266Z,42.37
2022-08-07T09:47:25.462Z,42.37
2022-08-07T09:48:50.235Z,42.34
2022-08-07T09:52:09.787Z,42.24
2022-08-07T09:54:34.467Z,42.06
2022-08-07T09:57:46.478Z,42.37
2022-08-07T10:00:15.077Z,41.87
2022-08-07T10:03:07.872Z,41.77
2022-08-07T10:06:17.595Z,41.75
2022-08-07T10:08:56.900Z,41.79
2022-08-07T10:12:01.331Z,41.50
2022-08-07T10:14:47.529Z,41.43
2022-08-07T10:18:01.850Z,41.29
2022-08-07T10:20:31.737Z,41.58
2022-08-07T10:24:06.776Z,41.23
2022-08-07T10:26:29.208Z,41.41
2022-08-07T10:29:07.577Z,41.08
2022-08-07T10:31:50.029Z,41.20
2022-08-07T10:34:37.458Z,40.94
2022-08-07T10:37:12.857Z,40.43
2022-08-07T10:39:57.447Z,40.43
2022-08-07T10:42:36.974Z,40.02
2022-08-07T10:45:44.996Z,40.12
2022-08-07T10:48:17.599Z,39.72
2022-08-07T10:50:50.167Z,39.65
2022-08-07T10:53:25.014Z,39.12
2022-08-07T10:56:02.201Z,38.79
2022-08-07T10:58:46.185Z,38.23
2022-08-07T11:01:23.773Z,37.25
2022-08-07T11:04:10.289Z,36.91
2022-08-07T11:06:49.481Z,36.39
2022-08-07T11:10:08.443Z,36.29
2022-08-07T11:12:31.790Z,35.53
2022-08-07T11:15:03.692Z,34.90
2022-08-07T11:17:45.824Z,33.88
2022-08-07T11:20:31.861Z,32.95
2022-08-07T11:23:04.478Z,33.02
2022-08-07T11:25:42.472Z,32.43
2022-08-07T11:28:21.125Z,32.45
2022-08-07T11:30:56.371Z,32.89
2022-08-07T11:33:53.563Z,33.16
2022-08-07T11:36:30.817Z,33.74
2022-08-07T11:39:06.990Z,33.67
2022-08-07T11:42:00.447Z,33.68
2022-08-07T11:44:52.319Z,32.87
2022-08-07T11:47:56.704Z,32.13
2022-08-07T11:50:44.343Z,30.99
2022-08-07T11:53:35.182Z,30.30
2022-08-07T11:56:27.063Z,28.77
2022-08-07T11:59:01.386Z,27.96
2022-08-07T12:02:00.609Z,27.69
2022-08-07T12:04:44.313Z,26.49
2022-08-07T12:07:20.583Z,26.58
2022-08-07T12:09:57.366Z,26.25
2022-08-07T12:12:27.061Z,25.99
2022-08-07T12:15:01.137Z,26.28
2022-08-07T12:17:59.543Z,26.04
2022-08-07T12:20:32.266Z,25.78
2022-08-07T12:24:05.092Z,25.47
2022-08-07T12:26:29.021Z,25.34
2022-08-07T12:29:04.693Z,24.85
2022-08-07T12:31:52.390Z,25.13
2022-08-07T12:34:26.898Z,25.03
2022-08-07T12:36:54.982Z,24.97
2022-08-07T12:39:42.916Z,24.56
2022-08-07T12:42:13.102Z,24.87
2022-08-07T12:44:42.915Z,24.81
2022-08-07T12:47:21.402Z,24.44
2022-08-07T12:50:05.033Z,24.15
2022-08-07T12:52:41.456Z,24.14
2022-08-07T12:55:18.201Z,24.46
2022-08-07T12:58:00.335Z,24.26
2022-08-07T13:00:36.079Z,24.05
2022-08-07T13:03:27.498Z,23.99
2022-08-07T13:06:21.507Z,23.57
2022-08-07T13:08:59.764Z,23.51
2022-08-07T13:12:02.268Z,22.85
2022-08-07T13:14:33.421Z,23.26
2022-08-07T13:17:03.969Z,22.98
2022-08-07T13:19:51.128Z,22.86
2022-08-07T13:22:28.372Z,23.09
2022-08-07T13:25:00.168Z,23.14
2022-08-07T13:28:05.514Z,22.63
2022-08-07T13:30:41.186Z,22.46
2022-08-07T13:34:14.523Z,22.69
2022-08-07T13:36:05.445Z,22.92
2022-08-07T13:38:42.070Z,22.37
2022-08-07T13:41:13.841Z,22.52
2022-08-07T13:43:43.072Z,22.14
2022-08-07T13:46:22.031Z,21.99
2022-08-07T13:48:59.553Z,22.14
2022-08-07T13:52:04.989Z,22.46
2022-08-07T13:54:22.501Z,22.51
2022-08-07T13:56:59.483Z,22.58
2022-08-07T13:59:31.339Z,22.54
2022-08-07T14:02:07.714Z,22.94
2022-08-07T14:04:47.490Z,22.57
2022-08-07T14:07:17.241Z,22.51
2022-08-07T14:10:12.080Z,22.86
2022-08-07T14:12:42.001Z,22.82
2022-08-07T14:15:25.121Z,22.83
2022-08-07T14:18:24.493Z,23.12
2022-08-07T14:20:48.662Z,23.08
2022-08-07T14:23:58.557Z,22.94
2022-08-07T14:26:28.165Z,22.80
2022-08-07T14:29:06.005Z,22.43
2022-08-07T14:31:57.940Z,22.53
2022-08-07T14:34:30.011Z,23.08
2022-08-07T14:36:59.102Z,23.07
2022-08-07T14:40:16.725Z,22.88
2022-08-07T14:42:31.155Z,22.97
2022-08-07T14:45:22.224Z,23.20
2022-08-07T14:47:47.778Z,22.86
2022-08-07T14:50:19.891Z,23.09
2022-08-07T14:52:50.161Z,23.44
2022-08-07T14:55:18.680Z,23.57
2022-08-07T14:57:58.387Z,23.16
2022-08-07T15:00:30.270Z,23.60
2022-08-07T15:02:58.803Z,23.55
2022-08-07T15:05:27.488Z,23.31
2022-08-07T15:07:59.131Z,24.01
2022-08-07T15:10:30.084Z,23.92
2022-08-07T15:13:01.100Z,24.42
2022-08-07T15:15:38.467Z,24.59
2022-08-07T15:18:14.256Z,24.75
2022-08-07T15:20:59.026Z,24.95
2022-08-07T15:25:14.899Z,24.54
2022-08-07T15:26:22.943Z,25.04
2022-08-07T15:32:02.023Z,24.56
2022-08-07T15:34:34.150Z,24.47
2022-08-07T15:37:06.772Z,24.82
2022-08-07T15:42:44.320Z,24.35
2022-08-07T15:45:56.400Z,24.17
2022-08-07T15:48:23.521Z,24.31
2022-08-07T15:51:05.966Z,23.87
2022-08-07T15:53:41.904Z,23.64
2022-08-07T15:56:21.364Z,23.74
2022-08-07T15:58:53.571Z,23.70
2022-08-07T16:01:38.618Z,23.55
2022-08-07T16:04:14.288Z,23.62
2022-08-07T16:06:45.266Z,23.10
2022-08-07T16:09:15.346Z,23.32
2022-08-07T16:12:03.243Z,22.92
2022-08-07T16:15:04.633Z,23.36
2022-08-07T16:18:01.788Z,23.41
2022-08-07T16:20:41.676Z,23.88
2022-08-07T16:23:53.171Z,23.66
2022-08-07T16:26:08.591Z,23.41
2022-08-07T16:30:09.075Z,23.66
2022-08-07T16:32:02.190Z,24.12
2022-08-07T16:34:48.072Z,23.75
2022-08-07T16:38:06.188Z,24.26
2022-08-07T16:41:01.371Z,23.93
2022-08-07T16:44:02.426Z,23.52
2022-08-07T16:47:04.929Z,23.16
2022-08-07T16:50:28.056Z,22.98
2022-08-07T16:54:02.715Z,23.02
2022-08-07T16:56:18.674Z,22.88
2022-08-07T16:59:10.651Z,23.03
2022-08-07T17:01:50.184Z,23.50
2022-08-07T17:04:24.746Z,23.05
2022-08-07T17:07:02.803Z,22.87
2022-08-07T17:10:07.426Z,23.37
2022-08-07T17:12:44.455Z,22.91
2022-08-07T17:15:19.637Z,22.80
2022-08-07T17:17:54.138Z,22.78
2022-08-07T17:20:30.897Z,22.72
2022-08-07T17:23:02.530Z,22.64
2022-08-07T17:25:51.432Z,22.16
2022-08-07T17:28:24.363Z,22.92
2022-08-07T17:30:58.393Z,22.60
2022-08-07T17:33:39.214Z,22.96
2022-08-07T17:36:20.517Z,23.39
2022-08-07T17:38:54.632Z,24.57
2022-08-07T17:42:04.455Z,25.64
2022-08-07T17:44:41.262Z,26.93
2022-08-07T17:47:16.804Z,28.46
2022-08-07T17:49:52.045Z,29.69
2022-08-07T17:52:30.638Z,30.23
2022-08-07T17:55:05.089Z,31.49
2022-08-07T17:57:58.652Z,32.20
2022-08-07T18:00:34.721Z,32.70
2022-08-07T18:03:19.566Z,32.86
2022-08-07T18:06:02.773Z,33.22
2022-08-07T18:08:35.586Z,33.57
2022-08-07T18:12:06.836Z,33.73
2022-08-07T18:14:01.781Z,33.95
2022-08-07T18:16:33.934Z,34.08
2022-08-07T18:21:07.069Z,34.46
2022-08-07T18:22:06.312Z,34.29
2022-08-07T18:24:37.885Z,34.33
2022-08-07T18:27:18.153Z,34.74
2022-08-07T18:30:04.302Z,34.70
2022-08-07T18:33:12.046Z,34.56
2022-08-07T18:35:53.739Z,34.65
2022-08-07T18:38:58.330Z,35.12
2022-08-07T18:41:20.780Z,35.38
2022-08-07T18:43:59.282Z,36.05
2022-08-07T18:46:35.577Z,36.73
2022-08-07T18:50:30.812Z,36.98
2022-08-07T18:52:38.317Z,37.20
2022-08-07T18:55:41.584Z,37.34
2022-08-07T18:58:24.860Z,37.81
2022-08-07T19:01:02.886Z,37.68
2022-08-07T19:03:38.747Z,37.66
2022-08-07T19:06:10.192Z,37.83
2022-08-07T19:08:58.512Z,37.73
2022-08-07T19:11:35.852Z,37.69
2022-08-07T19:14:11.461Z,37.58
2022-08-07T19:17:04.440Z,37.82
2022-08-07T19:19:42.673Z,37.60
2022-08-07T19:22:15.657Z,37.83
2022-08-07T19:24:48.834Z,37.96
2022-08-07T19:28:30.628Z,38.07
2022-08-07T19:31:05.750Z,38.21
2022-08-07T19:33:13.329Z,38.27
2022-08-07T19:35:45.134Z,38.45
2022-08-07T19:38:17.429Z,38.65
2022-08-07T19:40:49.514Z,38.90
2022-08-07T19:43:44.191Z,39.37
2022-08-07T19:46:10.075Z,39.44
2022-08-07T19:48:42.151Z,39.54
2022-08-07T19:51:20.302Z,40.03
2022-08-07T19:54:33.671Z,40.09
2022-08-07T19:57:51.951Z,40.12
2022-08-07T19:59:41.482Z,40.42
2022-08-07T20:02:19.005Z,40.67
2022-08-07T20:04:50.188Z,40.84
2022-08-07T20:07:46.096Z,41.16
2022-08-07T20:10:36.213Z,41.22
2022-08-07T20:13:06.085Z,41.34
2022-08-07T20:15:36.973Z,41.46
2022-08-07T20:18:17.982Z,41.70
2022-08-07T20:20:46.476Z,41.73
2022-08-07T20:23:32.693Z,42.05
2022-08-07T20:26:10.312Z,42.03
2022-08-07T20:28:39.307Z,41.93
2022-08-07T20:31:21.278Z,42.12
2022-08-07T20:33:51.947Z,42.18
2022-08-07T20:36:25.498Z,42.31
2022-08-07T20:39:00.318Z,42.48
2022-08-07T20:41:37.942Z,42.45
2022-08-07T20:44:12.325Z,42.63
2022-08-07T20:46:44.176Z,42.97
2022-08-07T20:50:00.115Z,42.96
2022-08-07T20:52:01.644Z,42.96
2022-08-07T20:54:36.084Z,43.16
2022-08-07T20:57:05.618Z,43.06
2022-08-07T21:00:06.867Z,43.35
2022-08-07T21:02:53.998Z,43.47
2022-08-07T21:05:25.789Z,43.62
2022-08-07T21:08:14.487Z,43.80
2022-08-07T21:10:45.311Z,44.10
2022-08-07T21:13:16.788Z,44.33
2022-08-07T21:15:58.650Z,44.66
2022-08-07T21:18:33.830Z,44.86
2022-08-07T21:21:01.927Z,44.98
2022-08-07T21:23:35.551Z,45.14
2022-08-07T21:26:21.911Z,45.11
2022-08-07T21:28:53.293Z,45.25
2022-08-07T21:31:31.492Z,45.00
2022-08-07T21:34:18.281Z,45.32
2022-08-07T21:36:51.545Z,45.08
2022-08-07T21:39:47.202Z,45.12
2022-08-07T21:46:04.822Z,45.00
2022-08-07T21:48:05.423Z,45.08
2022-08-07T21:50:35.843Z,45.03
2022-08-07T21:53:07.915Z,45.06
2022-08-07T21:55:41.439Z,45.33
2022-08-07T21:58:29.922Z,45.38
2022-08-07T22:01:00.714Z,45.29
2022-08-07T22:03:32.088Z,45.52
2022-08-07T22:06:03.410Z,45.59
2022-08-07T22:08:34.027Z,45.63
2022-08-07T22:11:03.860Z,45.31
2022-08-07T22:13:52.809Z,45.29
2022-08-07T22:16:44.940Z,45.43
2022-08-07T22:19:23.603Z,45.27
2022-08-07T22:22:05.343Z,45.38
2022-08-07T22:24:51.546Z,45.39
2022-08-07T22:27:23.571Z,45.72
2022-08-07T22:30:15.357Z,45.77
2022-08-07T22:32:54.486Z,45.87
2022-08-07T22:35:24.386Z,45.93
2022-08-07T22:38:11.710Z,46.05
2022-08-07T22:40:52.604Z,45.90
2022-08-07T22:43:31.503Z,46.09
2022-08-07T22:47:02.851Z,46.13
2022-08-07T22:49:33.921Z,45.88
2022-08-07T22:52:12.581Z,45.97
2022-08-07T22:54:59.890Z,45.91
2022-08-07T22:58:01.631Z,46.17
2022-08-07T23:00:30.327Z,45.89
2022-08-07T23:03:19.600Z,46.24
2022-08-07T23:06:07.096Z,45.98
2022-08-07T23:08:54.564Z,45.80
2022-08-07T23:11:35.212Z,46.01
2022-08-07T23:14:22.892Z,46.00
2022-08-07T23:17:00.430Z,45.97
2022-08-07T23:19:59.847Z,46.03
2022-08-07T23:22:39.345Z,45.87
2022-08-07T23:25:20.947Z,45.85
2022-08-07T23:28:22.400Z,46.12
2022-08-07T23:31:06.662Z,45.94
2022-08-07T23:34:36.244Z,46.23
2022-08-07T23:36:44.212Z,46.23
2022-08-07T23:39:41.139Z,46.16
2022-08-07T23:42:15.654Z,46.12
2022-08-07T23:45:04.002Z,46.05
2022-08-07T23:47:46.448Z,46.30
2022-08-07T23:50:24.167Z,46.09
2022-08-07T23:53:19.342Z,46.06
2022-08-07T23:55:55.860Z,46.25
2022-08-07T23:58:27.781Z,46.21
